ADDS METAR Data INFO
IDs: Format: Raw Decoded Include TAF

Data at: 0608 UTC 25 Jun 2018

KMDD 250555Z AUTO 18021G28KT 10SM 32/13 A2984 RMK AO2 T03150132 10418 20315 404280263
KMDD 250535Z AUTO 17019G24KT 10SM 32/13 A2984 RMK AO2 T03170127
KMDD 250515Z AUTO 17018G26KT 10SM 32/13 A2984 RMK AO2 T03200125
KMDD 250455Z AUTO 16015G23KT 10SM 32/13 A2984 RMK AO2 T03210126
KMDD 250435Z AUTO 17015G23KT 10SM 33/13 A2985 RMK AO2 T03250130
KMDD 250415Z AUTO 16020G28KT 10SM 33/13 A2984 RMK AO2 T03300130
KMDD 250355Z AUTO 16020G25KT 10SM 33/14 A2983 RMK AO2 T03320135
KMDD 250335Z AUTO 17017G26KT 10SM 34/14 A2982 RMK AO2 T03350137
KMDD 250315Z AUTO 17020G28KT 10SM 34/14 A2981 RMK AO2 T03390140
KMDD 250255Z AUTO 18021G31KT 10SM 35/14 A2980 RMK AO2 T03460138
KMDD 250235Z AUTO 17020G30KT 10SM 35/14 A2978 RMK AO2 T03540143
KMDD 250215Z AUTO 17022G27KT 10SM 36/16 A2977 RMK AO2 T03600159
KMDD 250155Z AUTO 18018G25KT 10SM 37/17 A2975 RMK AO2 T03680165
KMDD 250135Z AUTO 18017G23KT 10SM 38/17 A2975 RMK AO2 T03760170
KMDD 250115Z AUTO 18012G23KT 10SM 39/17 A2974 RMK AO2 T03860168
KMDD 250055Z AUTO 19015G21KT 10SM 41/14 A2973 RMK AO2 T04060136
KMDD 250035Z AUTO 24010KT 10SM 41/08 A2972 RMK AO2 T04120080
KMDD 250015Z AUTO 22012G18KT 10SM 42/08 A2972 RMK AO2 T04170075
KMDD 242355Z AUTO 25012G19KT 10SM 42/08 A2972 RMK AO2 T04180079 10428 20380
KMDD 242335Z AUTO 22015G20KT 10SM 42/08 A2972 RMK AO2 T04200084
KMDD 242315Z AUTO 23007KT 10SM 42/10 A2972 RMK AO2 T04230096
KMDD 242255Z AUTO 24011G21KT 10SM 43/09 A2973 RMK AO2 T04250087
KMDD 242235Z AUTO 22016G24KT 10SM 43/09 A2974 RMK AO2 T04250087
KMDD 242215Z AUTO 25011G25KT 10SM 43/09 A2974 RMK AO2 T04250091
KMDD 242155Z AUTO 21012G18KT 10SM 43/10 A2975 RMK AO2 T04270100
KMDD 242135Z AUTO 23014G23KT 10SM 43/10 A2975 RMK AO2 T04250096
KMDD 242115Z AUTO 23012G22KT 10SM 43/10 A2976 RMK AO2 T04260097
KMDD 242055Z AUTO 24010G20KT 210V270 10SM 43/10 A2976 RMK AO2 T04250098
KMDD 242035Z AUTO 25011G17KT 10SM 42/11 A2977 RMK AO2 LTG DSNT N T04200108
KMDD 242015Z AUTO 24016G24KT 10SM 42/10 A2978 RMK AO2 T04150101
KMDD 241955Z AUTO 23014G20KT 10SM 42/12 A2978 RMK AO2 T04150120
KMDD 241935Z AUTO 24014G19KT 10SM 41/12 A2978 RMK AO2 T04080123
KMDD 241915Z AUTO 21011G18KT 10SM 41/13 A2979 RMK AO2 T04050129
KMDD 241855Z AUTO 22016G20KT 10SM 40/12 A2980 RMK AO2 T04020123
KMDD 241835Z AUTO 23014G18KT 10SM 40/14 A2980 RMK AO2 T03950141
KMDD 241815Z AUTO 23012G18KT 7SM 39/15 A2981 RMK AO2 T03870151
KMDD 241755Z AUTO 25013G19KT 7SM 38/15 A2981 RMK AO2 T03800154 10380 20263
KMDD 241735Z AUTO 22011G17KT 10SM 37/17 A2981 RMK AO2 T03700170
KMDD 241715Z AUTO 22015G22KT 10SM 36/17 A2981 RMK AO2 T03610172
KMDD 241655Z AUTO 21013G20KT 10SM 35/19 A2981 RMK AO2 T03520185
KMDD 241635Z AUTO 22014G23KT 10SM 34/19 A2982 RMK AO2 T03400185
KMDD 241615Z AUTO 22017G22KT 10SM 33/20 A2982 RMK AO2 T03300196
KMDD 241555Z AUTO 21015G20KT 10SM 32/20 A2982 RMK AO2 T03220202
KMDD 241535Z AUTO 19016G21KT 10SM 32/21 A2982 RMK AO2 T03160208
KMDD 241515Z AUTO 21014G23KT 10SM 31/21 A2982 RMK AO2 T03060209
KMDD 241455Z AUTO 20015G23KT 7SM 30/21 A2983 RMK AO2 T02960211
KMDD 241435Z AUTO 20017G22KT 10SM 29/22 A2983 RMK AO2 T02900215
KMDD 241415Z AUTO 19013KT 10SM 29/22 A2984 RMK AO2 T02850217
KMDD 241355Z AUTO 19012G19KT 10SM 28/22 A2984 RMK AO2 T02800220
KMDD 241335Z AUTO 18014G21KT 10SM 28/22 A2983 RMK AO2 T02750219
KMDD 241315Z AUTO 18016G22KT 10SM 27/22 A2982 RMK AO2 T02710218
KMDD 241255Z AUTO 18011G18KT 7SM 27/22 A2982 RMK AO2 T02670215
KMDD 241235Z AUTO 18012G23KT 10SM 27/21 A2981 RMK AO2 T02650213
KMDD 241215Z AUTO 18017G26KT 10SM 26/21 A2980 RMK AO2 T02630210
KMDD 241155Z AUTO 18016G21KT 7SM 27/21 A2980 RMK AO2 T02650206 10328 20265
KMDD 241135Z AUTO 17019G26KT 7SM 27/21 A2979 RMK AO2 T02660205
KMDD 241115Z AUTO 17017G26KT 7SM 27/20 A2980 RMK AO2 T02700203
KMDD 241055Z AUTO 17017G20KT 10SM 27/20 A2979 RMK AO2 T02720200
KMDD 241035Z AUTO 17019G25KT 10SM 28/20 A2980 RMK AO2 T02750197
KMDD 241015Z AUTO 16018G30KT 10SM 28/20 A2980 RMK AO2 T02790196
KMDD 240955Z AUTO 16018G25KT 10SM 28/20 A2980 RMK AO2 T02820195
KMDD 240935Z AUTO 17014G23KT 10SM 29/20 A2980 RMK AO2 T02850195
KMDD 240915Z AUTO 15019G23KT 10SM 29/20 A2981 RMK AO2 T02880196
KMDD 240855Z AUTO 16017G21KT 10SM 29/20 A2981 RMK AO2 T02910196
KMDD 240835Z AUTO 15016G21KT 10SM 30/20 A2981 RMK AO2 T02950197
KMDD 240815Z AUTO 15016G24KT 10SM 30/20 A2980 RMK AO2 T03000196
KMDD 240755Z AUTO 16020G26KT 10SM 30/20 A2981 RMK AO2 T03030197
KMDD 240735Z AUTO 15020G25KT 10SM 31/19 A2980 RMK AO2 T03090193
KMDD 240715Z AUTO 15016G20KT 10SM 32/18 A2981 RMK AO2 T03150184
KMDD 240655Z AUTO 15016G24KT 10SM 32/18 A2980 RMK AO2 T03200181
KMDD 240635Z AUTO 14020G25KT 10SM 32/18 A2980 RMK AO2 T03210180
KMDD 240615Z AUTO 15015G21KT 10SM 33/18 A2979 RMK AO2 T03250177
KMDD 240555Z AUTO 16016G22KT 10SM 33/17 A2978 RMK AO2 T03280174 10417 20320 404370255
KMDD 240535Z AUTO 17018G21KT 10SM 33/17 A2978 RMK AO2 T03310171
KMDD 240515Z AUTO 16015KT 10SM 33/17 A2978 RMK AO2 T03340170
KMDD 240455Z AUTO 15014G20KT 10SM 34/17 A2978 RMK AO2 T03350170
KMDD 240435Z AUTO 16011KT 10SM 34/18 A2977 RMK AO2 T03350175
KMDD 240415Z AUTO 17009KT 10SM 34/18 A2976 RMK AO2 T03390175
KMDD 240355Z AUTO 18011G15KT 10SM 34/18 A2976 RMK AO2 T03420176
KMDD 240335Z AUTO 18008KT 10SM 34/17 A2975 RMK AO2 T03400172
KMDD 240315Z AUTO 18009KT 10SM 33/14 A2973 RMK AO2 T03280137
KMDD 240255Z AUTO 00000KT 10SM 33/11 A2972 RMK AO2 T03260109
KMDD 240235Z AUTO 00000KT 10SM 34/12 A2972 RMK AO2 T03390120
KMDD 240215Z AUTO 35003KT 10SM 35/12 A2971 RMK AO2 T03520115
KMDD 240155Z AUTO 35003KT 10SM 37/11 A2972 RMK AO2 LTG DSNT E T03660109
KMDD 240135Z AUTO 00000KT 10SM 38/11 A2972 RMK AO2 LTG DSNT SE T03800110
KMDD 240115Z AUTO 31003KT 10SM 40/11 A2971 RMK AO2 LTG DSNT SE T03950113
KMDD 240055Z AUTO 29003KT 10SM 41/11 A2971 RMK AO2 LTG DSNT E T04050111
KMDD 240035Z AUTO 30004KT 10SM 41/11 A2971 RMK AO2 LTG DSNT E T04070106
KMDD 240015Z AUTO 26003KT 10SM 41/11 A2971 RMK AO2 LTG DSNT E AND SE T04140111
KMDD 232355Z AUTO 31005KT 10SM 42/11 A2971 RMK AO2 LTG DSNT E T04180111 10437 20373
KMDD 232335Z AUTO 29007KT 10SM 43/11 A2971 RMK AO2 LTG DSNT E T04290113
KMDD 232315Z AUTO 00000KT 10SM 44/11 A2972 RMK AO2 T04370113
KMDD 232255Z AUTO 00000KT 10SM 43/10 A2973 RMK AO2 T04320103
KMDD 232235Z AUTO 00000KT 10SM 43/10 A2973 RMK AO2 T04260104
KMDD 232215Z AUTO 35004KT 10SM 43/10 A2974 RMK AO2 T04280103
KMDD 232155Z AUTO 26003KT 10SM 42/11 A2974 RMK AO2 T04230105
KMDD 232135Z AUTO 22005KT 10SM 42/10 A2974 RMK AO2 T04240104
KMDD 232115Z AUTO 28006KT 10SM 42/11 A2975 RMK AO2 T04210106
KMDD 232055Z AUTO 00000KT 10SM 42/10 A2975 RMK AO2 T04170104
KMDD 232035Z AUTO 22008KT 10SM 41/11 A2975 RMK AO2 T04110113
KMDD 232015Z AUTO 24010KT 10SM 41/12 A2975 RMK AO2 T04110122
KMDD 231955Z AUTO 25008KT 170V270 10SM 40/13 A2976 RMK AO2 T04040125
KMDD 231935Z AUTO 25008G14KT 10SM 40/13 A2976 RMK AO2 T04000127
KMDD 231915Z AUTO 23007KT 10SM 40/14 A2977 RMK AO2 T04010140
KMDD 231855Z AUTO 25007KT 10SM 40/14 A2977 RMK AO2 T03960139
KMDD 231835Z AUTO 23006G15KT 7SM 39/14 A2978 RMK AO2 T03910142
KMDD 231815Z AUTO 23010KT 10SM 38/16 A2978 RMK AO2 T03800157